Time;durP1;ratioP1;P1;durP2;ratioP2;P2;SDS_P1;SDS_P2;PMS_P1;PMS_P2;Temp;Humidity;BMP_temperature;BMP_pressure;BME280_temperature;BME280_humidity;BME280_pressure;Samples;Min_cycle;Max_cycle;Signal;HPM_P1;HPM_P2
2022/12/19 00:01:47;;;;;;;64.78;28.33;;;;;;;-0.87;61.94;102103.06;7847312;31;40821;-79
2022/12/19 00:06:04;;;;;;;66.80;29.08;;;;;;;-0.56;61.73;102094.87;7821064;31;37762;-79
2022/12/19 00:10:20;;;;;;;64.35;27.87;;;;;;;-0.67;62.33;102103.91;7819850;32;37174;-79
2022/12/19 00:14:36;;;;;;;66.05;28.15;;;;;;;-0.44;62.03;102106.31;7836472;31;39994;-79
2022/12/19 00:18:53;;;;;;;63.17;28.40;;;;;;;-0.12;61.28;102105.09;7846230;31;39969;-80
2022/12/19 00:23:10;;;;;;;64.03;27.13;;;;;;;-0.09;61.76;102105.66;7839452;31;38058;-80
2022/12/19 00:27:26;;;;;;;67.90;26.92;;;;;;;-0.10;62.72;102106.69;7841547;31;37147;-79
2022/12/19 00:31:42;;;;;;;68.12;27.40;;;;;;;-0.12;63.30;102100.63;7847278;31;39114;-80
2022/12/19 00:36:01;;;;;;;60.80;26.70;;;;;;;0.08;62.59;102097.87;7821022;31;40674;-80
2022/12/19 00:40:17;;;;;;;73.50;30.37;;;;;;;0.18;62.26;102096.84;7836280;31;38118;-79
2022/12/19 00:44:33;;;;;;;66.37;28.60;;;;;;;0.21;62.18;102100.22;7847147;31;37210;-79
2022/12/19 00:48:50;;;;;;;66.20;28.85;;;;;;;0.30;61.47;102089.44;7840036;31;39259;-81
2022/12/19 00:53:06;;;;;;;54.55;26.87;;;;;;;0.46;60.88;102082.59;7819448;32;40799;-81
2022/12/19 00:57:22;;;;;;;68.22;29.85;;;;;;;0.09;62.21;102080.78;7819252;32;38715;-81
2022/12/19 01:01:40;;;;;;;60.20;29.12;;;;;;;-0.62;64.36;102085.59;7842540;31;37849;-80
2022/12/19 01:05:56;;;;;;;65.03;29.15;;;;;;;-0.03;62.37;102082.81;7825390;31;39764;-80
2022/12/19 01:10:13;;;;;;;60.00;28.02;;;;;;;-0.36;63.01;102076.97;7818969;31;40876;-81
2022/12/19 01:14:29;;;;;;;67.75;28.48;;;;;;;-0.11;62.45;102074.63;7819009;32;37849;-79
2022/12/19 01:18:45;;;;;;;66.20;29.45;;;;;;;0.14;61.76;102073.16;7820776;31;37832;-77
2022/12/19 01:23:01;;;;;;;63.53;27.90;;;;;;;0.02;62.10;102063.56;7846400;31;39170;-80
2022/12/19 01:27:17;;;;;;;65.12;26.98;;;;;;;-0.24;62.71;102053.53;7846284;31;39895;-79
2022/12/19 01:31:34;;;;;;;58.22;27.23;;;;;;;-0.22;62.65;102038.97;7822101;31;37981;-78
2022/12/19 01:35:50;;;;;;;66.95;26.95;;;;;;;-0.33;62.88;102033.75;7818303;32;37132;-80
2022/12/19 01:40:07;;;;;;;68.05;28.42;;;;;;;-0.35;63.21;102029.53;7832131;31;39971;-79
2022/12/19 01:44:25;;;;;;;72.20;28.33;;;;;;;-0.21;62.83;102032.63;7845836;31;40552;-78
2022/12/19 01:48:43;;;;;;;71.93;29.20;;;;;;;-0.11;62.47;102029.87;7842704;31;37833;-79
2022/12/19 01:53:00;;;;;;;59.35;26.58;;;;;;;-0.10;62.45;102028.91;7841909;31;36211;-79
2022/12/19 01:57:18;;;;;;;67.85;27.45;;;;;;;-0.06;62.25;102038.34;7845442;31;39174;-79
2022/12/19 02:01:36;;;;;;;69.95;27.90;;;;;;;-0.12;62.98;102028.22;7824249;31;39918;-80
2022/12/19 02:06:07;;;;;;;73.80;26.87;;;;;;;-0.33;64.40;102038.28;7817789;32;38128;-80
2022/12/19 02:10:23;;;;;;;70.97;29.00;;;;;;;-0.10;64.23;102028.91;7841435;31;37076;-79
2022/12/19 02:14:40;;;;;;;65.70;27.40;;;;;;;0.09;63.06;102019.94;7845193;31;39466;-79
2022/12/19 02:19:20;;;;;;;63.72;27.80;;;;;;;0.19;63.12;102019.91;7830487;31;40038;-81
2022/12/19 02:23:50;;;;;;;62.85;28.25;;;;;;;-0.16;63.82;102028.66;7816281;32;38104;-79
2022/12/19 02:28:46;;;;;;;68.32;29.70;;;;;;;0.10;63.83;102031.50;7824641;31;37877;-79
2022/12/19 02:33:23;;;;;;;80.20;29.50;;;;;;;0.12;63.57;102034.88;7844557;31;39217;-80
2022/12/19 02:37:51;;;;;;;64.07;27.00;;;;;;;-0.13;63.17;102039.91;7837628;31;40615;-79
2022/12/19 02:42:12;;;;;;;60.45;27.40;;;;;;;0.03;63.43;102041.97;7818322;32;37931;-79
2022/12/19 02:46:29;;;;;;;68.25;27.15;;;;;;;-0.18;63.28;102036.84;7821897;31;37853;-80
2022/12/19 02:50:46;;;;;;;76.47;30.35;;;;;;;0.33;61.94;102048.91;7819723;32;39929;-79
2022/12/19 02:55:11;;;;;;;69.20;28.95;;;;;;;0.15;63.35;102043.47;7824359;31;38370;-80
2022/12/19 03:00:01;;;;;;;73.90;29.73;;;;;;;0.12;64.43;102048.28;7851726;31;37887;-78
2022/12/19 03:04:23;;;;;;;72.35;29.40;;;;;;;0.39;64.05;102038.56;7850949;31;37585;-80
2022/12/19 03:08:46;;;;;;;73.60;28.55;;;;;;;0.08;64.50;102036.19;7821761;31;39212;-79
2022/12/19 03:13:27;;;;;;;84.43;30.00;;;;;;;0.17;64.08;102016.50;7820761;31;40822;-79
2022/12/19 03:17:44;;;;;;;85.53;28.83;;;;;;;0.40;64.25;102011.59;7815303;31;38693;-80
2022/12/19 03:22:00;;;;;;;76.03;29.23;;;;;;;0.59;64.36;101991.84;7820508;32;37085;-80
2022/12/19 03:26:19;;;;;;;80.87;29.70;;;;;;;0.96;63.10;101988.12;7840446;31;39803;-80
2022/12/19 03:30:38;;;;;;;89.45;30.85;;;;;;;0.34;65.42;101980.81;7848066;31;39977;-79
2022/12/19 03:35:06;;;;;;;87.05;29.73;;;;;;;0.25;66.36;101984.41;7835643;31;37894;-80
2022/12/19 03:39:25;;;;;;;81.60;29.20;;;;;;;0.63;64.93;101987.84;7819245;32;37767;-80
2022/12/19 03:43:43;;;;;;;82.37;29.37;;;;;;;0.73;64.36;101996.66;7822734;31;39192;-80
2022/12/19 03:48:03;;;;;;;83.47;30.65;;;;;;;0.81;63.95;101993.22;7846540;31;41565;-80
2022/12/19 03:52:34;;;;;;;86.03;28.50;;;;;;;0.96;64.04;101988.12;7840573;31;38085;-80
2022/12/19 03:56:55;;;;;;;86.70;31.00;;;;;;;1.04;63.60;101995.44;7820126;32;37868;-80
2022/12/19 04:01:11;;;;;;;84.00;29.55;;;;;;;1.06;63.82;101991.59;7820284;32;39220;-80
2022/12/19 04:05:28;;;;;;;77.87;28.45;;;;;;;0.79;64.51;101999.72;7845821;31;39915;-79
2022/12/19 04:09:45;;;;;;;78.35;29.27;;;;;;;1.06;64.03;101996.97;7846379;31;37600;-80
2022/12/19 04:14:06;;;;;;;74.10;27.77;;;;;;;0.86;64.45;101992.75;7844890;31;37710;-79
2022/12/19 04:18:23;;;;;;;72.50;30.48;;;;;;;0.73;65.15;102004.72;7846329;31;39979;-79
2022/12/19 04:23:10;;;;;;;95.78;31.95;;;;;;;0.90;64.63;102000.34;7845670;31;39645;-80
2022/12/19 04:27:33;;;;;;;86.47;30.33;;;;;;;1.08;64.01;102005.69;7846014;31;37260;-80
2022/12/19 04:31:49;;;;;;;91.53;31.40;;;;;;;1.22;63.26;102000.78;7825200;31;36965;-78
2022/12/19 04:36:06;;;;;;;85.43;29.35;;;;;;;1.36;63.02;102000.19;7819704;32;39318;-80
2022/12/19 04:40:23;;;;;;;80.05;29.73;;;;;;;1.23;63.24;101989.87;7820223;31;39722;-79
2022/12/19 04:44:39;;;;;;;85.40;29.55;;;;;;;1.17;63.86;102003.09;7818341;32;38564;-79
2022/12/19 04:48:55;;;;;;;83.80;30.95;;;;;;;1.18;63.48;102002.94;7819387;32;36823;-80
2022/12/19 04:53:11;;;;;;;85.03;30.33;;;;;;;1.05;63.92;102003.34;7819692;32;39184;-79
2022/12/19 04:57:31;;;;;;;86.60;28.90;;;;;;;1.37;62.87;101996.53;7819794;31;39002;-81
2022/12/19 05:01:47;;;;;;;77.97;28.87;;;;;;;1.19;63.39;102001.09;7819121;32;37831;-79
2022/12/19 05:06:11;;;;;;;82.45;30.42;;;;;;;1.36;63.16;102015.50;7818740;32;37058;-79
2022/12/19 05:10:28;;;;;;;81.28;27.83;;;;;;;1.50;62.47;102006.84;7818918;32;38304;-80
2022/12/19 05:14:45;;;;;;;73.40;27.60;;;;;;;1.20;63.24;102008.16;7819079;32;40926;-80
2022/12/19 05:19:01;;;;;;;69.82;27.33;;;;;;;1.37;62.60;102001.91;7818750;32;38426;-80
2022/12/19 05:23:18;;;;;;;71.30;26.48;;;;;;;1.09;63.00;101998.50;7818798;32;37134;-77
2022/12/19 05:27:34;;;;;;;66.90;26.27;;;;;;;1.34;62.96;101991.47;7819028;32;39992;-80
2022/12/19 05:31:51;;;;;;;65.97;26.12;;;;;;;0.78;63.80;101989.97;7829339;31;40983;-79
2022/12/19 05:36:08;;;;;;;65.37;27.10;;;;;;;1.23;62.98;101997.09;7845008;31;37890;-80
2022/12/19 05:40:24;;;;;;;72.72;26.98;;;;;;;1.33;62.58;101992.47;7845099;31;37072;-80
2022/12/19 05:44:40;;;;;;;57.35;23.00;;;;;;;1.00;62.82;101994.91;7846123;31;39196;-72
2022/12/19 05:48:58;;;;;;;77.50;26.48;;;;;;;1.31;66.17;101999.84;7843475;31;39589;-82
2022/12/19 05:53:15;;;;;;;65.00;27.10;;;;;;;1.21;65.46;101997.25;7818141;32;37930;-79
2022/12/19 05:57:35;;;;;;;65.72;26.42;;;;;;;1.65;65.13;101991.00;7817126;32;36753;-79
2022/12/19 06:01:52;;;;;;;70.00;25.52;;;;;;;1.53;63.08;101998.47;7826223;31;39301;-78
2022/12/19 06:06:15;;;;;;;66.75;27.37;;;;;;;1.71;62.15;102002.94;7816641;31;39841;-78
2022/12/19 06:10:31;;;;;;;69.47;26.33;;;;;;;1.62;61.55;101999.37;7829051;31;38424;-76
2022/12/19 06:14:47;;;;;;;69.60;25.65;;;;;;;1.20;62.78;102002.78;7836675;31;37878;-82
2022/12/19 06:19:03;;;;;;;58.53;23.87;;;;;;;1.50;61.86;102007.72;7823808;31;39308;-81
2022/12/19 06:23:20;;;;;;;63.15;24.75;;;;;;;1.46;61.47;101995.56;7848923;31;40033;-82
2022/12/19 06:27:36;;;;;;;65.70;26.73;;;;;;;1.52;61.18;101994.12;7848504;31;37665;-83
2022/12/19 06:31:52;;;;;;;68.72;26.50;;;;;;;1.31;62.02;101991.78;7826636;31;37762;-81
2022/12/19 06:36:15;;;;;;;61.35;25.92;;;;;;;1.18;62.70;102002.94;7840780;31;39897;-82
2022/12/19 06:45:07;;;;;;;82.93;29.02;;;;;;;1.19;63.07;101999.25;7845036;31;38484;-81
2022/12/19 06:49:23;;;;;;;67.07;26.45;;;;;;;1.12;63.15;101999.03;7841241;31;37240;-83
2022/12/19 06:53:40;;;;;;;67.78;25.85;;;;;;;1.25;62.96;101997.78;7848538;31;40060;-81
2022/12/19 06:57:56;;;;;;;64.80;24.87;;;;;;;1.46;62.31;102017.06;7847077;31;39981;-81
2022/12/19 07:02:27;;;;;;;67.70;24.95;;;;;;;1.22;62.83;102012.38;7838856;31;37942;-82
2022/12/19 07:06:43;;;;;;;66.10;25.05;;;;;;;1.48;62.07;102015.09;7847128;31;37162;-80
2022/12/19 07:11:04;;;;;;;57.13;24.30;;;;;;;1.40;62.53;102022.25;7847171;31;39394;-82
2022/12/19 07:15:20;;;;;;;65.00;24.65;;;;;;;1.38;61.93;102016.19;7822450;31;39621;-80
2022/12/19 07:19:37;;;;;;;69.00;26.00;;;;;;;1.43;62.51;102017.41;7837980;31;38055;-80
2022/12/19 07:23:54;;;;;;;52.25;23.10;;;;;;;0.85;63.85;102001.81;7849313;31;37268;-80
2022/12/19 07:28:10;;;;;;;55.67;23.75;;;;;;;1.11;63.23;102018.00;7847978;31;39267;-82
2022/12/19 07:32:26;;;;;;;69.68;25.75;;;;;;;1.09;63.31;102010.09;7848368;31;40819;-81
2022/12/19 07:36:42;;;;;;;59.83;24.12;;;;;;;0.95;64.09;102002.59;7848702;31;37836;-84
2022/12/19 07:41:01;;;;;;;64.78;23.58;;;;;;;0.86;64.36;101998.12;7824393;31;37480;-82
2022/12/19 07:45:17;;;;;;;54.03;23.45;;;;;;;1.40;62.79;102001.59;7820275;32;38597;-80
2022/12/19 07:49:34;;;;;;;53.58;22.60;;;;;;;1.38;62.21;102022.41;7820746;31;39793;-82
2022/12/19 07:53:50;;;;;;;55.53;22.87;;;;;;;1.32;62.45;102025.72;7836614;31;37988;-81
2022/12/19 07:58:09;;;;;;;57.35;23.27;;;;;;;1.09;63.01;102036.94;7831638;31;37133;-84
2022/12/19 08:02:25;;;;;;;47.60;20.52;;;;;;;1.26;62.97;102042.44;7820366;32;39214;-79
2022/12/19 08:06:41;;;;;;;55.25;22.17;;;;;;;1.16;62.80;102037.19;7840945;31;40806;-81
2022/12/19 08:11:17;;;;;;;46.95;20.12;;;;;;;1.17;62.73;102035.34;7841704;31;38203;-81
2022/12/19 08:15:33;;;;;;;42.47;20.55;;;;;;;1.10;62.60;102038.66;7844564;31;37944;-84
2022/12/19 08:19:49;;;;;;;48.92;20.77;;;;;;;1.00;62.48;102059.38;7831931;31;39839;-84
2022/12/19 08:24:06;;;;;;;51.65;20.73;;;;;;;1.64;60.57;102054.69;7853183;31;40076;-83
2022/12/19 08:28:22;;;;;;;43.75;20.92;;;;;;;1.35;60.65;102054.16;7848871;31;37889;-79
2022/12/19 08:32:39;;;;;;;47.80;20.70;;;;;;;1.13;61.47;102038.31;7848899;31;37906;-75
2022/12/19 08:36:55;;;;;;;44.13;20.00;;;;;;;1.47;60.84;102032.22;7834511;31;39096;-83
2022/12/19 08:41:11;;;;;;;51.85;19.90;;;;;;;1.54;60.17;102029.75;7836545;31;40608;-73
2022/12/19 08:45:27;;;;;;;42.53;20.00;;;;;;;1.34;60.72;102034.47;7821777;32;38151;-82
2022/12/19 08:49:44;;;;;;;42.92;18.52;;;;;;;1.18;60.91;102031.66;7847023;31;37249;-84
2022/12/19 08:54:00;;;;;;;44.78;21.00;;;;;;;1.71;59.43;102041.47;7846555;31;38874;-82
2022/12/19 08:58:25;;;;;;;45.00;17.42;;;;;;;1.29;59.10;102031.41;7848538;31;39965;-79
2022/12/19 09:02:41;;;;;;;43.33;21.45;;;;;;;1.62;58.84;102037.00;7862345;31;38165;-82
2022/12/19 09:06:58;;;;;;;38.10;17.70;;;;;;;1.88;58.03;102018.22;7845920;31;37178;-83
2022/12/19 09:11:16;;;;;;;35.65;16.48;;;;;;;1.96;57.42;102034.38;7850037;31;39345;-82
2022/12/19 09:15:32;;;;;;;40.40;18.48;;;;;;;2.08;58.22;102036.78;7838542;31;39850;-80
2022/12/19 09:19:50;;;;;;;39.10;18.85;;;;;;;1.68;57.76;102047.16;7846352;31;38033;-82
2022/12/19 09:24:07;;;;;;;41.30;17.20;;;;;;;1.94;56.85;102057.06;7847994;31;37839;-82
2022/12/19 09:28:23;;;;;;;45.45;20.33;;;;;;;1.95;56.54;102032.69;7844018;31;39955;-81
2022/12/19 09:32:42;;;;;;;38.30;17.77;;;;;;;1.86;55.75;102030.94;7849839;31;40666;-81
2022/12/19 09:36:59;;;;;;;38.67;17.65;;;;;;;1.94;55.84;102025.63;7852196;31;37998;-81
2022/12/19 09:41:39;;;;;;;37.17;17.55;;;;;;;2.06;55.92;102024.34;7843256;31;36907;-82
2022/12/19 09:46:19;;;;;;;36.70;16.50;;;;;;;1.76;56.60;102016.75;7840633;31;40010;-81
2022/12/19 09:51:08;;;;;;;37.83;16.60;;;;;;;1.90;56.29;102015.31;7856159;31;40812;-80
2022/12/19 09:55:32;;;;;;;37.17;17.55;;;;;;;1.84;55.98;102019.50;7831956;31;38745;-83
2022/12/19 10:00:03;;;;;;;35.85;17.15;;;;;;;1.97;56.04;102008.31;7824574;31;37078;-84
2022/12/19 10:04:21;;;;;;;37.80;16.02;;;;;;;1.64;56.75;102005.47;7844460;31;40036;-84
2022/12/19 10:08:40;;;;;;;38.00;16.17;;;;;;;1.52;56.52;102009.37;7823502;31;38863;-82
2022/12/19 10:13:36;;;;;;;38.22;16.62;;;;;;;1.64;56.46;102010.84;7842555;31;39392;-84
2022/12/19 10:18:04;;;;;;;36.63;16.58;;;;;;;2.10;55.24;102011.41;7821378;31;37920;-82
2022/12/19 10:22:43;;;;;;;37.10;17.08;;;;;;;1.82;55.40;101992.78;7842464;31;39146;-83
2022/12/19 10:27:02;;;;;;;35.85;16.35;;;;;;;1.19;57.21;101988.50;7829042;31;40753;-83
2022/12/19 10:31:40;;;;;;;36.40;15.60;;;;;;;1.52;56.17;101994.12;7835753;31;38788;-81
2022/12/19 10:35:59;;;;;;;35.10;16.17;;;;;;;1.28;56.37;101986.72;7854107;31;37205;-82
2022/12/19 10:40:30;;;;;;;33.15;16.02;;;;;;;0.83;57.72;101993.03;7852629;31;39757;-81
2022/12/19 10:44:51;;;;;;;38.13;17.50;;;;;;;1.32;55.85;101985.41;7843203;31;40884;-83
2022/12/19 10:49:23;;;;;;;35.50;16.58;;;;;;;1.10;57.47;101982.22;7823671;31;39318;-73
2022/12/19 10:53:51;;;;;;;36.90;16.87;;;;;;;1.40;57.11;101980.09;7821808;32;36964;-83
2022/12/19 10:58:26;;;;;;;36.28;17.15;;;;;;;1.46;56.54;101968.69;7824718;31;40088;-84
2022/12/19 11:02:48;;;;;;;41.58;18.62;;;;;;;1.11;57.52;101969.63;7840016;31;40805;-80
2022/12/19 11:07:19;;;;;;;36.15;17.17;;;;;;;1.83;55.96;101964.03;7837976;31;37971;-83
2022/12/19 11:11:36;;;;;;;32.85;16.70;;;;;;;1.48;56.20;101981.97;7820470;31;37448;-80
2022/12/19 11:16:19;;;;;;;35.53;15.93;;;;;;;1.77;55.57;101965.50;7819989;31;39652;-83
2022/12/19 11:21:18;;;;;;;35.65;15.93;;;;;;;2.03;54.50;101957.38;7820142;31;41239;-80
2022/12/19 11:26:02;;;;;;;35.13;16.42;;;;;;;1.92;54.81;101956.84;7820204;31;38294;-82
2022/12/19 11:30:39;;;;;;;34.38;17.45;;;;;;;2.28;54.51;101937.78;7818965;32;38326;-80
2022/12/19 11:35:20;;;;;;;35.03;16.20;;;;;;;2.51;53.27;101919.16;7818751;32;39617;-79
2022/12/19 11:40:09;;;;;;;33.53;16.42;;;;;;;2.23;53.56;101912.22;7819275;32;40861;-80
2022/12/19 11:44:33;;;;;;;45.47;18.02;;;;;;;2.38;54.07;101895.41;7820482;32;38269;-80
2022/12/19 11:48:59;;;;;;;37.20;15.80;;;;;;;2.38;53.52;101909.72;7820391;32;36911;-77
2022/12/19 11:53:45;;;;;;;37.22;17.48;;;;;;;2.10;54.14;101903.75;7820317;32;39274;-82
2022/12/19 11:58:01;;;;;;;32.47;17.45;;;;;;;1.76;55.43;101910.06;7819178;32;40691;-80
2022/12/19 12:02:35;;;;;;;34.30;16.40;;;;;;;2.24;54.13;101899.59;7820202;32;38477;-80
2022/12/19 12:06:53;;;;;;;34.65;15.80;;;;;;;2.19;53.93;101902.78;7827147;31;37196;-79
2022/12/19 12:11:36;;;;;;;32.22;16.30;;;;;;;2.28;53.61;101889.31;7829302;31;39507;-80
2022/12/19 12:16:16;;;;;;;35.78;16.83;;;;;;;1.96;54.04;101882.88;7819138;31;40260;-81
2022/12/19 12:21:48;;;;;;;35.75;16.48;;;;;;;2.30;53.61;101890.03;7819417;31;38351;-81
2022/12/19 12:26:29;;;;;;;49.47;16.58;;;;;;;2.17;57.15;101894.00;7760738;31;37345;-80
2022/12/19 12:31:30;;;;;;;39.53;17.70;;;;;;;2.09;54.97;101891.31;7818515;32;40570;-81
2022/12/19 12:36:14;;;;;;;36.75;16.50;;;;;;;1.64;55.26;101900.59;7820230;31;40255;-80
2022/12/19 12:40:59;;;;;;;35.63;18.23;;;;;;;1.85;54.89;101895.63;7840146;31;38243;-79
2022/12/19 12:45:26;;;;;;;36.70;17.45;;;;;;;1.94;54.44;101892.97;7847243;31;38108;-78
2022/12/19 12:49:49;;;;;;;39.25;18.27;;;;;;;2.14;53.79;101897.06;7847163;31;39997;-80
2022/12/19 12:54:09;;;;;;;36.60;17.48;;;;;;;1.99;54.12;101887.94;7834290;31;39555;-84
2022/12/19 12:58:47;;;;;;;38.72;17.62;;;;;;;2.04;54.38;101880.22;7846265;31;38255;-83
2022/12/19 13:03:15;;;;;;;35.70;16.92;;;;;;;1.96;54.90;101874.81;7848158;31;37822;-84
2022/12/19 13:07:41;;;;;;;36.47;17.48;;;;;;;1.49;55.25;101868.91;7845088;31;40096;-84
2022/12/19 13:16:42;;;;;;;35.22;15.93;;;;;;;1.64;55.41;101869.16;7819213;32;38775;-79
2022/12/19 13:21:01;;;;;;;40.10;17.37;;;;;;;1.52;56.12;101864.22;7819502;31;37684;-79
2022/12/19 13:25:37;;;;;;;30.67;15.65;;;;;;;1.10;57.58;101850.59;7843502;31;38905;-77
2022/12/19 13:29:59;;;;;;;32.40;16.12;;;;;;;1.43;56.51;101845.38;7835872;31;39874;-80
2022/12/19 13:34:18;;;;;;;30.37;15.60;;;;;;;1.73;55.47;101831.56;7838498;31;238893;-79
2022/12/19 13:38:47;;;;;;;29.52;15.35;;;;;;;1.53;55.61;101839.03;7846178;31;37274;-78
2022/12/19 13:43:48;;;;;;;31.50;15.20;;;;;;;1.88;54.99;101828.06;7818437;31;39439;-80
2022/12/19 13:48:07;;;;;;;31.80;15.65;;;;;;;1.83;55.06;101830.41;7833856;31;40779;-79
2022/12/19 13:52:25;;;;;;;38.17;17.60;;;;;;;1.66;57.54;101845.62;7845760;31;37592;-82
2022/12/19 13:56:42;;;;;;;35.03;17.83;;;;;;;1.04;57.72;101851.22;7830470;31;37874;-80
2022/12/19 14:01:03;;;;;;;34.70;17.40;;;;;;;1.21;57.04;101856.66;7817967;32;39918;-82
2022/12/19 14:05:31;;;;;;;35.55;17.30;;;;;;;1.34;56.26;101851.72;7817923;32;40825;-80
2022/12/19 14:10:21;;;;;;;37.38;17.62;;;;;;;1.69;55.63;101849.81;7840797;31;39009;-80
2022/12/19 14:15:12;;;;;;;37.60;17.20;;;;;;;1.24;56.87;101841.09;7843257;31;37569;-79
2022/12/19 14:19:36;;;;;;;43.33;17.12;;;;;;;0.95;57.42;101846.81;7844861;31;39680;-81
2022/12/19 14:24:12;;;;;;;37.55;15.98;;;;;;;1.15;56.88;101847.41;7838220;31;39980;-81
2022/12/19 14:29:00;;;;;;;33.55;15.35;;;;;;;0.88;57.47;101840.34;7842469;31;37955;-84
2022/12/19 14:33:25;;;;;;;27.85;16.12;;;;;;;0.99;56.90;101837.41;7831951;31;37622;-81
2022/12/19 14:38:06;;;;;;;35.58;16.23;;;;;;;0.86;57.40;101847.72;7845276;31;39678;-83
2022/12/19 14:47:40;;;;;;;34.88;16.75;;;;;;;1.08;57.12;101841.81;7848123;31;39289;-81
2022/12/19 14:52:40;;;;;;;33.22;17.00;;;;;;;0.75;58.17;101828.19;7843585;31;38440;-81
2022/12/19 14:57:21;;;;;;;35.30;16.27;;;;;;;0.88;57.92;101845.72;7825484;31;39504;-83
2022/12/19 15:02:22;;;;;;;30.30;15.65;;;;;;;0.68;58.57;101827.13;7846172;31;40012;-81
2022/12/19 15:06:48;;;;;;;34.47;16.17;;;;;;;0.52;58.80;101827.03;7846363;31;37953;-79
2022/12/19 15:16:28;;;;;;;36.28;17.45;;;;;;;0.26;59.99;101835.88;7847786;31;40391;-83
2022/12/19 15:20:44;;;;;;;36.10;16.23;;;;;;;0.16;60.13;101835.94;7847972;31;39900;-84
2022/12/19 15:25:00;;;;;;;37.55;17.85;;;;;;;0.23;59.78;101846.91;7836316;31;38139;-83
2022/12/19 15:29:17;;;;;;;30.77;16.25;;;;;;;0.17;60.50;101839.44;7840896;31;37140;-84
2022/12/19 15:33:37;;;;;;;34.88;17.25;;;;;;;0.15;60.39;101831.56;7821119;31;39756;-83
2022/12/19 15:38:13;;;;;;;39.78;19.12;;;;;;;0.65;58.95;101826.59;7846968;31;41096;-81
2022/12/19 15:42:30;;;;;;;34.70;15.98;;;;;;;0.75;58.51;101813.94;7847842;31;37607;-81
2022/12/19 15:46:47;;;;;;;37.55;17.27;;;;;;;0.75;58.53;101814.75;7839500;31;37916;-79
2022/12/19 15:51:04;;;;;;;35.33;16.75;;;;;;;-0.01;60.34;101821.50;7844598;31;41467;-81
2022/12/19 15:55:22;;;;;;;35.53;17.95;;;;;;;0.54;59.34;101825.03;7847727;31;41257;-80
2022/12/19 15:59:43;;;;;;;34.13;16.67;;;;;;;0.61;59.22;101823.41;7847032;31;38087;-80
2022/12/19 16:04:02;;;;;;;35.78;17.02;;;;;;;0.48;59.43;101825.63;7846589;31;36804;-81
2022/12/19 16:08:20;;;;;;;37.65;17.20;;;;;;;0.61;59.13;101823.41;7845587;31;40140;-79
2022/12/19 16:12:59;;;;;;;38.03;17.35;;;;;;;-0.17;61.72;101816.00;7834236;31;42293;-80
2022/12/19 16:17:19;;;;;;;38.80;18.10;;;;;;;-0.10;61.37;101797.47;7849362;31;38819;-80
2022/12/19 16:21:36;;;;;;;39.03;17.77;;;;;;;-0.30;61.88;101800.28;7853539;31;36587;-80
2022/12/19 16:25:52;;;;;;;34.30;16.98;;;;;;;0.29;60.92;101792.59;7846238;31;39199;-83
2022/12/19 16:30:27;;;;;;;38.78;17.70;;;;;;;0.29;60.31;101797.13;7846008;31;39953;-82
2022/12/19 16:34:43;;;;;;;34.55;17.67;;;;;;;0.46;60.31;101784.69;7832066;31;38713;-82
2022/12/19 16:39:00;;;;;;;41.88;18.62;;;;;;;0.15;61.26;101785.13;7853385;31;37378;-81
2022/12/19 16:43:36;;;;;;;38.13;16.50;;;;;;;0.85;59.32;101793.19;7847218;31;39223;-78
2022/12/19 16:47:52;;;;;;;35.88;17.05;;;;;;;0.55;65.48;101802.53;7847186;31;39901;-80
2022/12/19 16:52:09;;;;;;;42.10;19.58;;;;;;;1.08;59.58;101787.25;7845006;31;38806;-79
2022/12/19 16:56:28;;;;;;;40.10;18.50;;;;;;;0.49;59.98;101787.06;7831336;31;36794;-78
2022/12/19 17:00:44;;;;;;;37.40;17.58;;;;;;;0.64;59.66;101798.06;7843623;31;39983;-79
2022/12/19 17:05:02;;;;;;;43.87;19.02;;;;;;;0.39;60.21;101813.16;7832210;31;40008;-79
2022/12/19 17:09:23;;;;;;;36.78;18.87;;;;;;;0.29;60.54;101814.06;7822219;31;37666;-78
2022/12/19 17:13:40;;;;;;;40.42;19.12;;;;;;;0.81;59.07;101807.06;7825989;31;36907;-81
2022/12/19 17:17:58;;;;;;;39.03;18.73;;;;;;;0.92;58.83;101798.78;7841267;31;39186;-82
2022/12/19 17:22:16;;;;;;;50.67;19.60;;;;;;;0.87;58.88;101809.16;7845051;31;40299;-82
2022/12/19 17:26:34;;;;;;;37.38;18.90;;;;;;;0.70;59.50;101806.34;7826525;31;40224;-82
2022/12/19 17:30:53;;;;;;;45.08;18.70;;;;;;;0.85;59.27;101803.09;7842826;31;37855;-81
2022/12/19 17:35:19;;;;;;;42.95;19.08;;;;;;;0.60;59.23;101805.59;7843686;31;39994;-85
2022/12/19 17:39:42;;;;;;;37.92;18.17;;;;;;;0.61;60.03;101807.28;7844166;31;40117;-84
2022/12/19 17:43:59;;;;;;;43.33;18.25;;;;;;;0.96;58.71;101821.59;7834185;31;37109;-82
2022/12/19 17:48:26;;;;;;;44.95;19.15;;;;;;;0.80;59.09;101817.00;7839417;31;36918;-82
2022/12/19 17:52:44;;;;;;;37.53;18.12;;;;;;;0.63;59.40;101821.41;7833353;31;39280;-81
2022/12/19 17:57:01;;;;;;;41.35;19.25;;;;;;;0.87;58.98;101817.19;7831365;31;39663;-81
2022/12/19 18:01:22;;;;;;;43.08;19.80;;;;;;;0.68;59.14;101819.09;7819062;31;37827;-82
2022/12/19 18:05:38;;;;;;;44.85;19.70;;;;;;;0.61;59.64;101825.25;7829944;31;37799;-82
2022/12/19 18:09:55;;;;;;;45.03;19.62;;;;;;;0.93;58.47;101821.91;7844947;31;38940;-83
2022/12/19 18:14:11;;;;;;;46.53;18.92;;;;;;;0.21;60.52;101816.69;7836840;31;39686;-82
2022/12/19 18:18:34;;;;;;;39.55;18.92;;;;;;;0.61;59.44;101807.28;7828356;31;37965;-83
2022/12/19 18:22:51;;;;;;;43.75;18.85;;;;;;;0.79;58.54;101809.09;7822687;31;37247;-85
2022/12/19 18:27:07;;;;;;;40.45;18.67;;;;;;;0.99;58.44;101799.81;7824173;31;38920;-81
2022/12/19 18:31:24;;;;;;;36.28;18.35;;;;;;;0.59;59.27;101779.78;7849413;31;40764;-81
2022/12/19 18:35:43;;;;;;;40.30;19.83;;;;;;;0.61;59.21;101772.41;7838595;31;38732;-82
2022/12/19 18:39:59;;;;;;;44.72;19.73;;;;;;;0.78;58.78;101772.47;7838816;31;37948;-84
2022/12/19 18:44:16;;;;;;;45.15;19.48;;;;;;;0.63;59.52;101753.44;7831504;31;39478;-84
2022/12/19 18:48:35;;;;;;;39.65;19.12;;;;;;;0.78;59.16;101749.19;7826395;31;39850;-84
2022/12/19 18:52:52;;;;;;;45.45;20.00;;;;;;;0.67;59.36;101761.03;7834136;31;38055;-83
2022/12/19 18:57:08;;;;;;;51.92;20.83;;;;;;;0.56;59.40;101754.06;7827884;31;37233;-83
2022/12/19 19:01:25;;;;;;;57.17;20.48;;;;;;;0.72;58.84;101752.50;7844060;31;39094;-85
2022/12/19 19:05:42;;;;;;;43.60;18.77;;;;;;;0.47;59.69;101746.13;7844051;31;40320;-83
2022/12/19 19:09:58;;;;;;;45.78;19.70;;;;;;;0.87;58.50;101737.47;7846987;31;37749;-83
2022/12/19 19:14:14;;;;;;;49.22;21.05;;;;;;;0.20;60.41;101728.34;7841207;31;37191;-80
2022/12/19 19:18:39;;;;;;;37.85;18.35;;;;;;;0.45;60.01;101729.31;7829822;31;39993;-82
2022/12/19 19:22:57;;;;;;;51.25;19.48;;;;;;;0.24;60.21;101718.97;7844959;31;40509;-82
2022/12/19 19:27:17;;;;;;;42.80;20.58;;;;;;;0.40;59.91;101723.59;7830648;31;37975;-82
2022/12/19 19:31:35;;;;;;;39.10;18.87;;;;;;;0.37;59.66;101708.66;7845151;31;36960;-82
2022/12/19 19:35:55;;;;;;;47.13;19.90;;;;;;;-0.30;61.19;101719.03;7837820;31;39058;-82
2022/12/19 19:40:12;;;;;;;50.63;20.45;;;;;;;0.43;59.71;101725.97;7832721;31;40018;-82
2022/12/19 19:44:29;;;;;;;43.72;18.75;;;;;;;-0.06;60.74;101729.13;7834857;31;38815;-82
2022/12/19 19:48:45;;;;;;;44.75;19.45;;;;;;;0.29;59.94;101733.56;7822407;31;37785;-81
2022/12/19 19:53:01;;;;;;;46.85;19.27;;;;;;;0.24;60.32;101735.88;7819954;31;38910;-81
2022/12/19 19:57:17;;;;;;;38.92;17.87;;;;;;;0.22;60.33;101732.53;7843724;31;40947;-82
2022/12/19 20:01:34;;;;;;;43.42;19.77;;;;;;;0.42;59.75;101732.34;7842338;31;37996;-81
2022/12/19 20:05:57;;;;;;;48.67;19.75;;;;;;;0.75;58.54;101736.06;7843716;31;37112;-84
2022/12/19 20:10:14;;;;;;;44.80;18.58;;;;;;;0.54;59.00;101736.44;7840248;31;40185;-84
2022/12/19 20:14:30;;;;;;;40.60;19.23;;;;;;;0.29;59.19;101733.56;7845414;31;40739;-84
2022/12/19 20:18:50;;;;;;;47.33;20.55;;;;;;;0.77;58.42;101742.13;7821837;31;38813;-83
2022/12/19 20:23:06;;;;;;;43.75;18.80;;;;;;;0.70;58.37;101757.19;7836277;31;37949;-82
2022/12/19 20:27:23;;;;;;;39.90;19.27;;;;;;;0.58;58.98;101753.91;7833785;31;39328;-83